createdAt,value
2022-09-27T00:01:41.128Z,48.70
2022-09-27T00:04:44.191Z,41.50
2022-09-27T00:07:47.083Z,42.90
2022-09-27T00:10:49.948Z,43.60
2022-09-27T00:13:55.651Z,47.30
2022-09-27T00:16:58.556Z,46.10
2022-09-27T00:20:01.913Z,40.20
2022-09-27T00:23:04.804Z,44.60
2022-09-27T00:26:10.732Z,42.30
2022-09-27T00:29:15.313Z,41.70
2022-09-27T00:32:18.597Z,39.10
2022-09-27T00:35:21.432Z,37.90
2022-09-27T00:38:24.540Z,40.50
2022-09-27T00:41:34.090Z,41.90
2022-09-27T00:44:39.910Z,41.70
2022-09-27T00:47:56.471Z,43.10
2022-09-27T00:51:03.787Z,41.60
2022-09-27T00:54:10.216Z,40.70
2022-09-27T00:57:13.397Z,39.10
2022-09-27T01:00:17.153Z,43.00
2022-09-27T01:03:33.125Z,40.70
2022-09-27T01:06:36.227Z,38.60
2022-09-27T01:09:39.635Z,38.00
2022-09-27T01:12:57.981Z,42.20
2022-09-27T01:16:11.465Z,39.90
2022-09-27T01:19:48.144Z,40.80
2022-09-27T01:23:15.947Z,36.30
2022-09-27T01:26:25.085Z,35.70
2022-09-27T01:29:28.238Z,35.40
2022-09-27T01:32:40.801Z,35.80
2022-09-27T01:36:06.173Z,33.60
2022-09-27T01:39:38.457Z,33.60
2022-09-27T01:43:18.043Z,36.90
2022-09-27T01:46:26.041Z,37.90
2022-09-27T01:49:58.226Z,32.50
2022-09-27T01:53:09.872Z,33.70
2022-09-27T01:56:33.265Z,36.30
2022-09-27T01:59:50.807Z,36.80
2022-09-27T02:03:19.396Z,35.50
2022-09-27T02:06:46.926Z,35.90
2022-09-27T02:10:02.754Z,33.70
2022-09-27T02:13:30.840Z,33.50
2022-09-27T02:16:48.884Z,36.10
2022-09-27T02:23:22.946Z,34.30
2022-09-27T02:26:43.890Z,38.60
2022-09-27T02:29:54.568Z,34.80
2022-09-27T02:32:57.481Z,36.20
2022-09-27T02:36:00.392Z,30.80
2022-09-27T02:39:04.573Z,31.90
2022-09-27T02:42:07.856Z,30.40
2022-09-27T02:45:13.905Z,34.20
2022-09-27T02:48:38.073Z,31.10
2022-09-27T02:52:00.528Z,28.10
2022-09-27T03:02:15.545Z,28.30
2022-09-27T03:05:45.789Z,28.00
2022-09-27T03:08:50.387Z,27.40
2022-09-27T03:11:53.652Z,30.10
2022-09-27T03:14:58.614Z,27.80
2022-09-27T03:18:30.457Z,27.30
2022-09-27T03:21:33.401Z,26.70
2022-09-27T03:24:36.604Z,26.10
2022-09-27T03:27:39.525Z,29.80
2022-09-27T03:30:42.744Z,29.70
2022-09-27T03:33:45.902Z,27.70
2022-09-27T03:36:49.488Z,26.60
2022-09-27T03:39:52.264Z,28.90
2022-09-27T03:42:55.492Z,27.50
2022-09-27T03:45:59.049Z,29.10
2022-09-27T03:49:02.047Z,31.60
2022-09-27T03:52:04.907Z,30.20
2022-09-27T03:55:08.060Z,32.00
2022-09-27T03:58:11.206Z,31.40
2022-09-27T04:01:15.671Z,31.30
2022-09-27T04:04:19.559Z,30.20
2022-09-27T04:07:23.660Z,31.00
2022-09-27T04:10:26.965Z,26.50
2022-09-27T04:13:30.094Z,31.20
2022-09-27T04:16:33.912Z,31.30
2022-09-27T04:20:06.864Z,33.60
2022-09-27T04:23:10.374Z,34.00
2022-09-27T04:26:15.149Z,33.50
2022-09-27T04:29:24.556Z,37.50
2022-09-27T04:32:28.439Z,33.20
2022-09-27T04:36:19.277Z,29.90
2022-09-27T04:39:40.456Z,31.60
2022-09-27T04:42:43.508Z,32.00
2022-09-27T04:45:46.724Z,34.50
2022-09-27T04:48:49.646Z,34.10
2022-09-27T04:51:52.482Z,30.80
2022-09-27T04:54:55.373Z,31.30
2022-09-27T04:57:58.903Z,27.50
2022-09-27T05:01:04.352Z,28.50
2022-09-27T05:04:26.337Z,27.00
2022-09-27T05:07:29.837Z,26.40
2022-09-27T05:10:37.088Z,28.70
2022-09-27T05:13:39.932Z,26.60
2022-09-27T05:16:42.838Z,33.00
2022-09-27T05:20:11.600Z,29.50
2022-09-27T05:23:20.228Z,31.00
2022-09-27T05:26:23.348Z,27.30
2022-09-27T05:29:26.422Z,24.70
2022-09-27T05:32:50.226Z,25.80
2022-09-27T05:36:02.475Z,25.40
2022-09-27T05:39:07.217Z,30.00
2022-09-27T05:42:12.250Z,25.80
2022-09-27T05:45:15.432Z,26.90
2022-09-27T05:48:18.406Z,28.20
2022-09-27T05:51:28.568Z,27.90
2022-09-27T05:54:31.840Z,30.00
2022-09-27T05:57:35.481Z,33.60
2022-09-27T06:00:41.773Z,30.40
2022-09-27T06:03:55.417Z,29.10
2022-09-27T06:07:17.581Z,34.60
2022-09-27T06:10:21.006Z,28.10
2022-09-27T06:13:24.001Z,29.90
2022-09-27T06:16:27.868Z,35.50
2022-09-27T06:19:31.080Z,34.70
2022-09-27T06:22:34.112Z,36.00
2022-09-27T06:25:38.524Z,34.20
2022-09-27T06:28:56.834Z,32.40
2022-09-27T06:32:01.615Z,31.90
2022-09-27T06:35:12.971Z,37.90
2022-09-27T06:38:18.362Z,32.00
2022-09-27T06:41:28.651Z,30.50
2022-09-27T06:44:45.827Z,35.00
2022-09-27T06:48:16.180Z,35.80
2022-09-27T06:51:34.260Z,32.30
2022-09-27T06:54:37.483Z,33.20
2022-09-27T06:57:58.962Z,32.10
2022-09-27T07:01:02.586Z,33.10
2022-09-27T07:04:25.137Z,30.40
2022-09-27T07:07:49.477Z,32.40
2022-09-27T07:10:53.705Z,30.30
2022-09-27T07:13:56.838Z,35.90
2022-09-27T07:16:59.829Z,34.40
2022-09-27T07:20:07.993Z,33.40
2022-09-27T07:23:12.492Z,30.60
2022-09-27T07:26:16.268Z,32.40
2022-09-27T07:29:19.872Z,29.80
2022-09-27T07:32:24.449Z,36.20
2022-09-27T07:35:28.840Z,29.40
2022-09-27T07:38:32.664Z,31.60
2022-09-27T07:41:35.562Z,26.40
2022-09-27T07:44:38.555Z,29.70
2022-09-27T07:48:06.683Z,25.80
2022-09-27T07:51:29.999Z,25.10
2022-09-27T07:54:47.027Z,22.90
2022-09-27T07:58:14.991Z,23.40
2022-09-27T08:01:18.432Z,25.40
2022-09-27T08:04:22.309Z,23.20
2022-09-27T08:07:25.771Z,26.30
2022-09-27T08:10:32.493Z,23.70
2022-09-27T08:13:37.801Z,22.10
2022-09-27T08:16:42.019Z,22.20
2022-09-27T08:20:12.380Z,19.20
2022-09-27T08:23:34.098Z,73.40
2022-09-27T08:26:56.157Z,26.60
2022-09-27T08:30:10.835Z,20.30
2022-09-27T08:33:14.774Z,20.10
2022-09-27T08:36:17.903Z,18.50
2022-09-27T08:39:20.960Z,20.00
2022-09-27T08:42:47.332Z,18.30
2022-09-27T08:46:34.427Z,17.10
2022-09-27T08:49:43.918Z,17.30
2022-09-27T08:52:55.113Z,18.50
2022-09-27T08:56:03.477Z,16.40
2022-09-27T08:59:22.141Z,15.70
2022-09-27T09:02:26.538Z,16.40
2022-09-27T09:05:35.934Z,18.10
2022-09-27T09:09:14.259Z,19.70
2022-09-27T09:12:48.401Z,18.00
2022-09-27T09:16:16.077Z,14.90
2022-09-27T09:19:39.381Z,15.00
2022-09-27T09:23:11.702Z,14.30
2022-09-27T09:26:32.134Z,12.90
2022-09-27T09:30:05.398Z,18.40
2022-09-27T09:33:30.059Z,15.50
2022-09-27T09:36:39.067Z,19.70
2022-09-27T09:39:44.537Z,18.50
2022-09-27T09:42:54.731Z,15.40
2022-09-27T09:46:07.553Z,13.70
2022-09-27T09:49:37.278Z,15.40
2022-09-27T09:52:44.934Z,13.10
2022-09-27T09:55:57.922Z,10.90
2022-09-27T09:59:22.838Z,10.30
2022-09-27T10:02:43.155Z,13.20
2022-09-27T10:05:49.269Z,14.90
2022-09-27T10:08:54.937Z,14.70
2022-09-27T10:12:10.184Z,10.80
2022-09-27T10:15:22.752Z,8.20
2022-09-27T10:18:28.398Z,9.90
2022-09-27T10:21:33.884Z,7.70
2022-09-27T10:25:03.469Z,7.90
2022-09-27T10:28:48.087Z,9.40
2022-09-27T10:31:53.985Z,10.60
2022-09-27T10:35:36.918Z,11.70
2022-09-27T10:38:51.675Z,9.20
2022-09-27T10:41:59.898Z,12.50
2022-09-27T10:45:29.514Z,9.80
2022-09-27T10:48:37.799Z,6.30
2022-09-27T10:51:40.954Z,9.60
2022-09-27T10:54:55.057Z,8.00
2022-09-27T10:57:58.139Z,7.40
2022-09-27T11:01:12.645Z,7.80
2022-09-27T11:04:38.605Z,5.70
2022-09-27T11:07:50.685Z,5.90
2022-09-27T11:11:13.861Z,11.00
2022-09-27T11:14:19.929Z,6.30
2022-09-27T11:17:32.630Z,7.70
2022-09-27T11:21:01.670Z,5.70
2022-09-27T11:24:15.604Z,8.80
2022-09-27T11:27:41.829Z,9.60
2022-09-27T11:31:08.605Z,13.20
2022-09-27T11:34:57.690Z,12.50
2022-09-27T11:38:48.024Z,10.70
2022-09-27T11:42:16.527Z,10.90
2022-09-27T11:46:23.904Z,12.40
2022-09-27T11:49:42.782Z,10.30
2022-09-27T11:52:59.813Z,5.70
2022-09-27T11:56:34.104Z,8.50
2022-09-27T11:59:43.688Z,7.00
2022-09-27T12:03:08.585Z,5.30
2022-09-27T12:06:13.448Z,7.90
2022-09-27T12:09:22.486Z,9.50
2022-09-27T12:12:31.639Z,5.80
2022-09-27T12:15:40.475Z,10.80
2022-09-27T12:18:51.341Z,8.10
2022-09-27T12:22:53.934Z,5.70
2022-09-27T12:25:58.069Z,8.60
2022-09-27T12:29:15.388Z,5.50
2022-09-27T12:32:32.831Z,6.10
2022-09-27T12:35:45.131Z,4.30
2022-09-27T12:39:01.961Z,6.10
2022-09-27T12:42:17.953Z,5.90
2022-09-27T12:45:37.484Z,5.70
2022-09-27T12:49:10.265Z,6.10
2022-09-27T12:52:23.487Z,6.80
2022-09-27T12:56:10.694Z,6.40
2022-09-27T12:59:17.619Z,9.60
2022-09-27T13:03:04.003Z,8.80
2022-09-27T13:06:23.783Z,12.60
2022-09-27T13:09:50.843Z,14.40
2022-09-27T13:12:55.706Z,7.40
2022-09-27T13:16:01.406Z,6.70
2022-09-27T13:19:47.963Z,7.20
2022-09-27T13:22:51.930Z,10.40
2022-09-27T13:26:43.372Z,8.60
2022-09-27T13:30:19.178Z,14.60
2022-09-27T13:33:28.876Z,11.80
2022-09-27T13:36:34.670Z,11.90
2022-09-27T13:39:40.806Z,8.90
2022-09-27T13:43:13.335Z,8.70
2022-09-27T13:46:29.641Z,10.30
2022-09-27T13:49:42.106Z,10.10
2022-09-27T13:52:55.955Z,11.70
2022-09-27T13:56:00.481Z,11.50
2022-09-27T13:59:19.118Z,12.60
2022-09-27T14:02:36.461Z,11.50
2022-09-27T14:05:48.803Z,13.90
2022-09-27T14:12:08.343Z,8.40
2022-09-27T14:15:28.572Z,9.30
2022-09-27T14:18:36.314Z,4.90
2022-09-27T14:21:40.296Z,3.20
2022-09-27T14:24:54.012Z,3.10
2022-09-27T14:28:01.015Z,4.80
2022-09-27T14:31:23.144Z,5.50
2022-09-27T14:34:45.881Z,5.30
2022-09-27T14:37:52.867Z,6.70
2022-09-27T14:41:00.679Z,6.50
2022-09-27T14:44:04.437Z,5.60
2022-09-27T14:47:10.066Z,3.60
2022-09-27T14:50:29.497Z,4.70
2022-09-27T14:53:36.718Z,3.90
2022-09-27T14:56:40.026Z,5.20
2022-09-27T14:59:46.203Z,5.00
2022-09-27T15:02:55.446Z,5.80
2022-09-27T15:06:01.348Z,6.90
2022-09-27T15:09:07.147Z,6.40
2022-09-27T15:12:14.345Z,6.20
2022-09-27T15:15:22.266Z,5.60
2022-09-27T15:18:33.261Z,8.10
2022-09-27T15:21:37.663Z,5.10
2022-09-27T15:24:46.785Z,6.40
2022-09-27T15:27:55.117Z,4.80
2022-09-27T15:30:58.736Z,4.70
2022-09-27T15:34:07.590Z,6.00
2022-09-27T15:37:24.263Z,6.50
2022-09-27T15:40:53.083Z,6.30
2022-09-27T15:43:56.095Z,7.80
2022-09-27T15:46:58.993Z,5.70
2022-09-27T15:50:16.854Z,9.40
2022-09-27T15:53:34.662Z,7.60
2022-09-27T15:56:40.113Z,8.50
2022-09-27T15:59:43.442Z,9.00
2022-09-27T16:02:46.940Z,11.90
2022-09-27T16:05:49.866Z,9.60
2022-09-27T16:08:52.800Z,10.60
2022-09-27T16:11:55.747Z,20.50
2022-09-27T16:14:58.622Z,22.90
2022-09-27T16:18:01.634Z,13.70
2022-09-27T16:21:04.991Z,14.70
2022-09-27T16:24:12.305Z,11.00
2022-09-27T16:27:27.478Z,11.40
2022-09-27T16:30:31.300Z,12.80
2022-09-27T16:33:41.073Z,12.00
2022-09-27T16:36:43.998Z,15.10
2022-09-27T16:39:47.015Z,18.50
2022-09-27T16:42:50.274Z,15.60
2022-09-27T16:45:53.242Z,18.70
2022-09-27T16:48:56.289Z,24.40
2022-09-27T16:52:03.356Z,22.00
2022-09-27T16:55:11.028Z,20.10
2022-09-27T16:58:14.547Z,18.70
2022-09-27T17:01:17.731Z,16.30
2022-09-27T17:04:21.047Z,16.10
2022-09-27T17:07:24.501Z,20.80
2022-09-27T17:10:27.657Z,17.50
2022-09-27T17:13:30.575Z,21.60
2022-09-27T17:16:33.559Z,21.00
2022-09-27T17:19:39.296Z,18.90
2022-09-27T17:22:42.257Z,21.60
2022-09-27T17:25:45.210Z,25.00
2022-09-27T17:28:50.816Z,25.70
2022-09-27T17:31:53.882Z,23.20
2022-09-27T17:35:00.000Z,25.60
2022-09-27T17:38:03.059Z,27.80
2022-09-27T17:41:12.096Z,29.30
2022-09-27T17:44:18.411Z,30.90
2022-09-27T17:47:40.144Z,30.50
2022-09-27T17:50:46.850Z,32.20
2022-09-27T17:53:50.501Z,35.50
2022-09-27T17:56:54.121Z,35.30
2022-09-27T17:59:58.061Z,37.80
2022-09-27T18:03:01.558Z,33.90
2022-09-27T18:06:10.662Z,33.00
2022-09-27T18:09:16.564Z,31.50
2022-09-27T18:12:19.688Z,31.30
2022-09-27T18:15:23.415Z,34.50
2022-09-27T18:18:28.002Z,30.10
2022-09-27T18:21:31.887Z,37.20
2022-09-27T18:24:34.979Z,38.40
2022-09-27T18:27:40.517Z,41.70
2022-09-27T18:30:44.469Z,44.00
2022-09-27T18:33:48.663Z,45.00
2022-09-27T18:36:52.021Z,47.90
2022-09-27T18:39:55.801Z,39.40
2022-09-27T18:42:58.748Z,39.20
2022-09-27T18:46:18.072Z,33.50
2022-09-27T18:49:33.647Z,35.20
2022-09-27T18:52:37.055Z,33.30
2022-09-27T18:55:41.706Z,33.50
2022-09-27T18:58:45.607Z,31.30
2022-09-27T19:01:48.997Z,32.30
2022-09-27T19:04:52.301Z,31.00
2022-09-27T19:07:55.714Z,34.90
2022-09-27T19:11:10.535Z,29.90
2022-09-27T19:14:19.664Z,29.80
2022-09-27T19:17:22.714Z,30.50
2022-09-27T19:20:25.992Z,35.10
2022-09-27T19:23:30.024Z,36.10
2022-09-27T19:26:32.980Z,32.50
2022-09-27T19:29:37.027Z,30.70
2022-09-27T19:32:40.154Z,31.10
2022-09-27T19:35:43.092Z,29.20
2022-09-27T19:38:47.035Z,25.40
2022-09-27T19:41:49.933Z,26.00
2022-09-27T19:44:52.919Z,28.00
2022-09-27T19:47:56.307Z,24.70
2022-09-27T19:51:01.589Z,23.70
2022-09-27T19:54:04.799Z,19.00
2022-09-27T19:57:07.684Z,19.30
2022-09-27T20:00:12.027Z,17.00
2022-09-27T20:03:15.137Z,14.90
2022-09-27T20:06:20.133Z,14.30
2022-09-27T20:09:25.258Z,13.90
2022-09-27T20:12:28.177Z,13.60
2022-09-27T20:15:31.238Z,15.80
2022-09-27T20:18:34.765Z,19.00
2022-09-27T20:21:38.262Z,17.60
2022-09-27T20:24:41.226Z,19.20
2022-09-27T20:27:44.256Z,15.40
2022-09-27T20:30:59.457Z,17.30
2022-09-27T20:34:03.477Z,19.40
2022-09-27T20:37:07.589Z,18.00
2022-09-27T20:40:10.483Z,19.30
2022-09-27T20:43:13.319Z,24.40
2022-09-27T20:46:18.309Z,17.10
2022-09-27T20:49:22.127Z,17.60
2022-09-27T20:52:24.944Z,14.10
2022-09-27T20:55:27.800Z,15.40
2022-09-27T20:58:32.162Z,14.70
2022-09-27T21:01:35.026Z,16.20
2022-09-27T21:04:37.944Z,13.70
2022-09-27T21:07:41.574Z,13.70
2022-09-27T21:10:47.094Z,11.70
2022-09-27T21:13:54.522Z,12.30
2022-09-27T21:17:01.691Z,14.00
2022-09-27T21:20:05.257Z,13.60
2022-09-27T21:23:08.213Z,14.20
2022-09-27T21:26:16.918Z,14.00
2022-09-27T21:29:21.031Z,12.30
2022-09-27T21:32:23.935Z,13.30
2022-09-27T21:35:26.949Z,16.00
2022-09-27T21:38:31.282Z,16.40
2022-09-27T21:41:34.779Z,14.10
2022-09-27T21:44:37.654Z,13.70
2022-09-27T21:47:40.682Z,13.80
2022-09-27T21:50:47.101Z,17.10
2022-09-27T21:53:52.562Z,17.30
2022-09-27T21:56:55.569Z,19.00
2022-09-27T21:59:58.495Z,16.60
2022-09-27T22:03:01.565Z,16.20
2022-09-27T22:06:06.167Z,13.90
2022-09-27T22:09:13.746Z,13.40
2022-09-27T22:12:16.765Z,11.30
2022-09-27T22:15:19.739Z,12.80
2022-09-27T22:18:22.833Z,11.90
2022-09-27T22:21:37.129Z,13.70
2022-09-27T22:24:39.998Z,15.50
2022-09-27T22:27:42.970Z,12.90
2022-09-27T22:30:45.846Z,11.10
2022-09-27T22:33:57.057Z,12.10
2022-09-27T22:37:00.932Z,11.60
2022-09-27T22:40:05.332Z,12.60
2022-09-27T22:43:08.207Z,14.40
2022-09-27T22:46:11.409Z,14.30
2022-09-27T22:49:14.532Z,15.30
2022-09-27T22:52:17.900Z,16.30
2022-09-27T22:55:20.742Z,15.80
2022-09-27T22:58:24.078Z,15.50
2022-09-27T23:01:26.950Z,15.70
2022-09-27T23:04:29.782Z,15.00
2022-09-27T23:07:32.637Z,14.00
2022-09-27T23:10:36.179Z,13.60
2022-09-27T23:13:41.414Z,14.60
2022-09-27T23:16:44.336Z,16.20
2022-09-27T23:19:47.157Z,16.80
2022-09-27T23:22:50.303Z,10.70
2022-09-27T23:26:00.603Z,14.40
2022-09-27T23:29:03.741Z,15.40
2022-09-27T23:32:06.632Z,11.20
2022-09-27T23:35:09.649Z,15.10
2022-09-27T23:38:14.666Z,13.10
2022-09-27T23:41:18.695Z,10.90
2022-09-27T23:44:22.826Z,12.50
2022-09-27T23:47:25.708Z,15.80
2022-09-27T23:50:28.535Z,16.20
2022-09-27T23:53:31.822Z,12.80
2022-09-27T23:56:34.673Z,14.90
2022-09-27T23:59:38.499Z,15.30
